sensor_id;sensor_type;location;lat;lon;timestamp;temperature;humidity
15991;DHT22;8100;50.994;4.538;2022-12-29T00:01:13;11.40;99.90
15991;DHT22;8100;50.994;4.538;2022-12-29T00:04:00;11.40;99.90
15991;DHT22;8100;50.994;4.538;2022-12-29T00:06:49;11.40;99.90
15991;DHT22;8100;50.994;4.538;2022-12-29T00:09:36;11.40;99.90
15991;DHT22;8100;50.994;4.538;2022-12-29T00:12:23;11.40;99.90
15991;DHT22;8100;50.994;4.538;2022-12-29T00:15:10;11.40;99.90
15991;DHT22;8100;50.994;4.538;2022-12-29T00:18:15;11.50;99.90
15991;DHT22;8100;50.994;4.538;2022-12-29T00:21:02;11.60;99.90
15991;DHT22;8100;50.994;4.538;2022-12-29T00:24:10;11.50;99.90
15991;DHT22;8100;50.994;4.538;2022-12-29T00:27:16;11.60;99.90
15991;DHT22;8100;50.994;4.538;2022-12-29T00:30:22;11.70;99.90
15991;DHT22;8100;50.994;4.538;2022-12-29T00:33:38;11.60;99.90
15991;DHT22;8100;50.994;4.538;2022-12-29T00:36:42;11.50;99.90
15991;DHT22;8100;50.994;4.538;2022-12-29T00:39:31;11.60;99.90
15991;DHT22;8100;50.994;4.538;2022-12-29T00:42:36;11.60;99.90
15991;DHT22;8100;50.994;4.538;2022-12-29T00:45:41;11.70;99.90
15991;DHT22;8100;50.994;4.538;2022-12-29T00:48:28;11.70;99.90
15991;DHT22;8100;50.994;4.538;2022-12-29T00:51:33;11.70;99.90
15991;DHT22;8100;50.994;4.538;2022-12-29T00:54:20;11.70;99.90
15991;DHT22;8100;50.994;4.538;2022-12-29T00:57:09;11.90;99.90
15991;DHT22;8100;50.994;4.538;2022-12-29T00:59:57;11.90;99.90
15991;DHT22;8100;50.994;4.538;2022-12-29T01:02:45;11.90;99.90
15991;DHT22;8100;50.994;4.538;2022-12-29T01:05:35;12.00;99.90
15991;DHT22;8100;50.994;4.538;2022-12-29T01:08:23;12.10;99.90
15991;DHT22;8100;50.994;4.538;2022-12-29T01:11:11;12.00;99.90
15991;DHT22;8100;50.994;4.538;2022-12-29T01:13:59;11.90;99.90
15991;DHT22;8100;50.994;4.538;2022-12-29T01:16:46;11.80;99.90
15991;DHT22;8100;50.994;4.538;2022-12-29T01:19:34;11.70;99.90
15991;DHT22;8100;50.994;4.538;2022-12-29T01:22:21;11.50;99.90
15991;DHT22;8100;50.994;4.538;2022-12-29T01:25:08;11.50;99.90
15991;DHT22;8100;50.994;4.538;2022-12-29T01:27:55;11.40;99.90
15991;DHT22;8100;50.994;4.538;2022-12-29T01:30:44;11.60;99.90
15991;DHT22;8100;50.994;4.538;2022-12-29T01:33:31;11.60;99.90
15991;DHT22;8100;50.994;4.538;2022-12-29T01:36:19;11.50;99.90
15991;DHT22;8100;50.994;4.538;2022-12-29T01:39:06;11.60;99.90
15991;DHT22;8100;50.994;4.538;2022-12-29T01:41:53;11.60;99.90
15991;DHT22;8100;50.994;4.538;2022-12-29T01:44:54;11.60;99.90
15991;DHT22;8100;50.994;4.538;2022-12-29T01:47:45;11.40;99.90
15991;DHT22;8100;50.994;4.538;2022-12-29T01:50:38;11.40;99.90
15991;DHT22;8100;50.994;4.538;2022-12-29T01:53:28;11.30;99.90
15991;DHT22;8100;50.994;4.538;2022-12-29T01:56:19;11.20;99.90
15991;DHT22;8100;50.994;4.538;2022-12-29T01:59:10;11.10;99.90
15991;DHT22;8100;50.994;4.538;2022-12-29T02:02:00;11.10;99.90
15991;DHT22;8100;50.994;4.538;2022-12-29T02:04:49;11.10;99.90
15991;DHT22;8100;50.994;4.538;2022-12-29T02:07:37;11.10;99.90
15991;DHT22;8100;50.994;4.538;2022-12-29T02:10:28;11.10;99.90
15991;DHT22;8100;50.994;4.538;2022-12-29T02:13:17;11.10;99.90
15991;DHT22;8100;50.994;4.538;2022-12-29T02:16:14;11.20;99.90
15991;DHT22;8100;50.994;4.538;2022-12-29T02:19:35;11.10;99.90
15991;DHT22;8100;50.994;4.538;2022-12-29T02:22:35;11.00;99.90
15991;DHT22;8100;50.994;4.538;2022-12-29T02:25:50;10.90;99.90
15991;DHT22;8100;50.994;4.538;2022-12-29T02:29:13;10.80;99.90
15991;DHT22;8100;50.994;4.538;2022-12-29T02:32:08;10.70;99.90
15991;DHT22;8100;50.994;4.538;2022-12-29T02:35:07;10.60;99.90
15991;DHT22;8100;50.994;4.538;2022-12-29T02:38:03;10.40;99.90
15991;DHT22;8100;50.994;4.538;2022-12-29T02:40:58;10.20;99.90
15991;DHT22;8100;50.994;4.538;2022-12-29T02:43:52;10.10;99.90
15991;DHT22;8100;50.994;4.538;2022-12-29T02:46:45;10.20;99.90
15991;DHT22;8100;50.994;4.538;2022-12-29T02:49:40;10.10;99.90
15991;DHT22;8100;50.994;4.538;2022-12-29T02:52:35;10.00;99.90
15991;DHT22;8100;50.994;4.538;2022-12-29T02:55:24;10.20;99.90
15991;DHT22;8100;50.994;4.538;2022-12-29T02:58:17;10.10;99.90
15991;DHT22;8100;50.994;4.538;2022-12-29T03:01:21;10.10;99.90
15991;DHT22;8100;50.994;4.538;2022-12-29T03:04:21;10.10;99.90
15991;DHT22;8100;50.994;4.538;2022-12-29T03:07:22;10.10;99.90
15991;DHT22;8100;50.994;4.538;2022-12-29T03:10:17;10.00;99.90
15991;DHT22;8100;50.994;4.538;2022-12-29T03:13:12;10.10;99.90
15991;DHT22;8100;50.994;4.538;2022-12-29T03:16:22;10.10;99.90
15991;DHT22;8100;50.994;4.538;2022-12-29T03:19:15;10.00;99.90
15991;DHT22;8100;50.994;4.538;2022-12-29T03:22:07;9.90;99.90
15991;DHT22;8100;50.994;4.538;2022-12-29T03:25:16;9.80;99.90
15991;DHT22;8100;50.994;4.538;2022-12-29T03:28:08;9.70;99.90
15991;DHT22;8100;50.994;4.538;2022-12-29T03:30:57;9.60;99.90
15991;DHT22;8100;50.994;4.538;2022-12-29T03:33:46;9.70;99.90
15991;DHT22;8100;50.994;4.538;2022-12-29T03:36:40;9.70;99.90
15991;DHT22;8100;50.994;4.538;2022-12-29T03:39:29;9.80;99.90
15991;DHT22;8100;50.994;4.538;2022-12-29T03:42:21;9.90;99.90
15991;DHT22;8100;50.994;4.538;2022-12-29T03:45:11;9.90;99.90
15991;DHT22;8100;50.994;4.538;2022-12-29T03:47:58;10.00;99.90
15991;DHT22;8100;50.994;4.538;2022-12-29T03:50:45;9.80;99.90
15991;DHT22;8100;50.994;4.538;2022-12-29T03:53:32;9.90;99.90
15991;DHT22;8100;50.994;4.538;2022-12-29T03:56:19;9.90;99.90
15991;DHT22;8100;50.994;4.538;2022-12-29T03:59:08;10.00;99.90
15991;DHT22;8100;50.994;4.538;2022-12-29T04:01:55;10.00;99.90
15991;DHT22;8100;50.994;4.538;2022-12-29T04:04:42;10.00;99.90
15991;DHT22;8100;50.994;4.538;2022-12-29T04:07:29;9.90;99.90
15991;DHT22;8100;50.994;4.538;2022-12-29T04:10:16;10.00;99.90
15991;DHT22;8100;50.994;4.538;2022-12-29T04:13:03;10.00;99.90
15991;DHT22;8100;50.994;4.538;2022-12-29T04:15:52;10.00;99.90
15991;DHT22;8100;50.994;4.538;2022-12-29T04:18:39;10.00;99.90
15991;DHT22;8100;50.994;4.538;2022-12-29T04:21:26;10.10;99.90
15991;DHT22;8100;50.994;4.538;2022-12-29T04:24:13;10.10;99.90
15991;DHT22;8100;50.994;4.538;2022-12-29T04:27:00;10.20;99.90
15991;DHT22;8100;50.994;4.538;2022-12-29T04:29:47;10.10;99.90
15991;DHT22;8100;50.994;4.538;2022-12-29T04:32:36;10.10;99.90
15991;DHT22;8100;50.994;4.538;2022-12-29T04:35:24;10.00;99.90
15991;DHT22;8100;50.994;4.538;2022-12-29T04:38:11;10.10;99.90
15991;DHT22;8100;50.994;4.538;2022-12-29T04:40:59;10.10;99.90
15991;DHT22;8100;50.994;4.538;2022-12-29T04:43:46;10.20;99.90
15991;DHT22;8100;50.994;4.538;2022-12-29T04:46:33;10.20;99.90
15991;DHT22;8100;50.994;4.538;2022-12-29T04:49:22;10.30;99.90
15991;DHT22;8100;50.994;4.538;2022-12-29T04:52:09;10.30;99.90
15991;DHT22;8100;50.994;4.538;2022-12-29T04:54:56;10.30;99.90
15991;DHT22;8100;50.994;4.538;2022-12-29T04:57:43;10.30;99.90
15991;DHT22;8100;50.994;4.538;2022-12-29T05:00:30;10.20;99.90
15991;DHT22;8100;50.994;4.538;2022-12-29T05:03:18;10.30;99.90
15991;DHT22;8100;50.994;4.538;2022-12-29T05:06:07;10.20;99.90
15991;DHT22;8100;50.994;4.538;2022-12-29T05:08:54;10.20;99.90
15991;DHT22;8100;50.994;4.538;2022-12-29T05:11:41;10.10;99.90
15991;DHT22;8100;50.994;4.538;2022-12-29T05:14:28;10.10;99.90
15991;DHT22;8100;50.994;4.538;2022-12-29T05:17:15;10.10;99.90
15991;DHT22;8100;50.994;4.538;2022-12-29T05:20:03;10.10;99.90
15991;DHT22;8100;50.994;4.538;2022-12-29T05:22:52;10.10;99.90
15991;DHT22;8100;50.994;4.538;2022-12-29T05:25:39;10.20;99.90
15991;DHT22;8100;50.994;4.538;2022-12-29T05:28:26;10.30;99.90
15991;DHT22;8100;50.994;4.538;2022-12-29T05:31:13;10.40;99.90
15991;DHT22;8100;50.994;4.538;2022-12-29T05:34:00;10.40;99.90
15991;DHT22;8100;50.994;4.538;2022-12-29T05:36:47;10.40;99.90
15991;DHT22;8100;50.994;4.538;2022-12-29T05:39:36;10.40;99.90
15991;DHT22;8100;50.994;4.538;2022-12-29T05:42:23;10.40;99.90
15991;DHT22;8100;50.994;4.538;2022-12-29T05:45:10;10.40;99.90
15991;DHT22;8100;50.994;4.538;2022-12-29T05:47:57;10.50;99.90
15991;DHT22;8100;50.994;4.538;2022-12-29T05:50:47;10.50;99.90
15991;DHT22;8100;50.994;4.538;2022-12-29T05:53:34;10.50;99.90
15991;DHT22;8100;50.994;4.538;2022-12-29T05:56:23;10.50;99.90
15991;DHT22;8100;50.994;4.538;2022-12-29T05:59:10;10.50;99.90
15991;DHT22;8100;50.994;4.538;2022-12-29T06:01:58;10.50;99.90
15991;DHT22;8100;50.994;4.538;2022-12-29T06:04:45;10.50;99.90
15991;DHT22;8100;50.994;4.538;2022-12-29T06:07:32;10.40;99.90
15991;DHT22;8100;50.994;4.538;2022-12-29T06:10:19;10.40;99.90
15991;DHT22;8100;50.994;4.538;2022-12-29T06:13:07;10.40;99.90
15991;DHT22;8100;50.994;4.538;2022-12-29T06:15:54;10.40;99.90
15991;DHT22;8100;50.994;4.538;2022-12-29T06:18:41;10.40;99.90
15991;DHT22;8100;50.994;4.538;2022-12-29T06:21:29;10.40;99.90
15991;DHT22;8100;50.994;4.538;2022-12-29T06:24:16;10.40;99.90
15991;DHT22;8100;50.994;4.538;2022-12-29T06:27:03;10.30;99.90
15991;DHT22;8100;50.994;4.538;2022-12-29T06:29:51;10.20;99.90
15991;DHT22;8100;50.994;4.538;2022-12-29T06:32:38;10.20;99.90
15991;DHT22;8100;50.994;4.538;2022-12-29T06:35:26;10.30;99.90
15991;DHT22;8100;50.994;4.538;2022-12-29T06:38:13;10.40;99.90
15991;DHT22;8100;50.994;4.538;2022-12-29T06:41:00;10.40;99.90
15991;DHT22;8100;50.994;4.538;2022-12-29T06:43:47;10.40;99.90
15991;DHT22;8100;50.994;4.538;2022-12-29T06:46:35;10.40;99.90
15991;DHT22;8100;50.994;4.538;2022-12-29T06:49:23;10.40;99.90
15991;DHT22;8100;50.994;4.538;2022-12-29T06:52:10;10.40;99.90
15991;DHT22;8100;50.994;4.538;2022-12-29T06:54:57;10.50;99.90
15991;DHT22;8100;50.994;4.538;2022-12-29T06:57:44;10.50;99.90
15991;DHT22;8100;50.994;4.538;2022-12-29T07:00:31;10.50;99.90
15991;DHT22;8100;50.994;4.538;2022-12-29T07:03:20;10.40;99.90
15991;DHT22;8100;50.994;4.538;2022-12-29T07:06:07;10.60;99.90
15991;DHT22;8100;50.994;4.538;2022-12-29T07:08:54;10.60;99.90
15991;DHT22;8100;50.994;4.538;2022-12-29T07:11:43;10.50;99.90
15991;DHT22;8100;50.994;4.538;2022-12-29T07:14:30;10.60;99.90
15991;DHT22;8100;50.994;4.538;2022-12-29T07:17:17;10.60;99.90
15991;DHT22;8100;50.994;4.538;2022-12-29T07:20:07;10.50;99.90
15991;DHT22;8100;50.994;4.538;2022-12-29T07:22:54;10.40;99.90
15991;DHT22;8100;50.994;4.538;2022-12-29T07:25:41;10.40;99.90
15991;DHT22;8100;50.994;4.538;2022-12-29T07:28:29;10.40;99.90
15991;DHT22;8100;50.994;4.538;2022-12-29T07:31:17;10.60;99.90
15991;DHT22;8100;50.994;4.538;2022-12-29T07:34:05;10.60;99.90
15991;DHT22;8100;50.994;4.538;2022-12-29T07:36:53;10.60;99.90
15991;DHT22;8100;50.994;4.538;2022-12-29T07:39:40;10.50;99.90
15991;DHT22;8100;50.994;4.538;2022-12-29T07:42:27;10.60;88.70
15991;DHT22;8100;50.994;4.538;2022-12-29T07:45:14;10.60;85.70
15991;DHT22;8100;50.994;4.538;2022-12-29T07:48:02;10.60;94.50
15991;DHT22;8100;50.994;4.538;2022-12-29T07:50:49;10.70;95.80
15991;DHT22;8100;50.994;4.538;2022-12-29T07:53:37;10.70;98.70
15991;DHT22;8100;50.994;4.538;2022-12-29T07:56:24;10.70;99.90
15991;DHT22;8100;50.994;4.538;2022-12-29T07:59:12;10.60;99.90
15991;DHT22;8100;50.994;4.538;2022-12-29T08:01:59;10.70;99.90
15991;DHT22;8100;50.994;4.538;2022-12-29T08:04:46;10.60;99.90
15991;DHT22;8100;50.994;4.538;2022-12-29T08:07:33;10.60;97.80
15991;DHT22;8100;50.994;4.538;2022-12-29T08:10:21;10.60;99.90
15991;DHT22;8100;50.994;4.538;2022-12-29T08:13:08;10.70;86.40
15991;DHT22;8100;50.994;4.538;2022-12-29T08:15:57;10.70;85.40
15991;DHT22;8100;50.994;4.538;2022-12-29T08:18:44;10.70;77.60
15991;DHT22;8100;50.994;4.538;2022-12-29T08:21:32;10.70;71.30
15991;DHT22;8100;50.994;4.538;2022-12-29T08:24:19;10.80;40.80
15991;DHT22;8100;50.994;4.538;2022-12-29T08:27:07;10.70;38.80
15991;DHT22;8100;50.994;4.538;2022-12-29T08:29:54;10.70;49.70
15991;DHT22;8100;50.994;4.538;2022-12-29T08:32:42;10.70;31.70
15991;DHT22;8100;50.994;4.538;2022-12-29T08:35:29;10.70;22.10
15991;DHT22;8100;50.994;4.538;2022-12-29T08:38:16;10.70;4.30
15991;DHT22;8100;50.994;4.538;2022-12-29T08:41:04;10.70;8.40
15991;DHT22;8100;50.994;4.538;2022-12-29T08:43:52;10.70;20.20
15991;DHT22;8100;50.994;4.538;2022-12-29T08:46:40;10.70;9.00
15991;DHT22;8100;50.994;4.538;2022-12-29T08:49:27;10.70;18.00
15991;DHT22;8100;50.994;4.538;2022-12-29T08:52:14;10.70;4.50
15991;DHT22;8100;50.994;4.538;2022-12-29T08:55:01;10.70;22.10
15991;DHT22;8100;50.994;4.538;2022-12-29T08:57:48;10.40;92.70
15991;DHT22;8100;50.994;4.538;2022-12-29T09:00:36;10.30;96.20
15991;DHT22;8100;50.994;4.538;2022-12-29T09:03:24;10.30;92.50
15991;DHT22;8100;50.994;4.538;2022-12-29T09:06:11;10.30;99.90
15991;DHT22;8100;50.994;4.538;2022-12-29T09:08:59;10.30;95.70
15991;DHT22;8100;50.994;4.538;2022-12-29T09:11:46;10.40;98.00
15991;DHT22;8100;50.994;4.538;2022-12-29T09:14:33;10.40;99.90
15991;DHT22;8100;50.994;4.538;2022-12-29T09:17:22;10.30;99.90
15991;DHT22;8100;50.994;4.538;2022-12-29T09:20:26;10.30;99.90
15991;DHT22;8100;50.994;4.538;2022-12-29T09:23:13;10.20;99.90
15991;DHT22;8100;50.994;4.538;2022-12-29T09:26:01;10.20;99.90
15991;DHT22;8100;50.994;4.538;2022-12-29T09:28:48;10.10;99.90
15991;DHT22;8100;50.994;4.538;2022-12-29T09:31:35;10.00;99.90
15991;DHT22;8100;50.994;4.538;2022-12-29T09:34:23;10.00;99.90
15991;DHT22;8100;50.994;4.538;2022-12-29T09:37:11;9.70;99.90
15991;DHT22;8100;50.994;4.538;2022-12-29T09:39:58;9.70;99.90
15991;DHT22;8100;50.994;4.538;2022-12-29T09:42:58;9.60;99.90
15991;DHT22;8100;50.994;4.538;2022-12-29T09:45:52;9.70;99.90
15991;DHT22;8100;50.994;4.538;2022-12-29T09:48:44;9.70;99.90
15991;DHT22;8100;50.994;4.538;2022-12-29T09:51:37;9.70;99.90
15991;DHT22;8100;50.994;4.538;2022-12-29T09:54:37;9.70;99.90
15991;DHT22;8100;50.994;4.538;2022-12-29T09:57:29;9.80;99.90
15991;DHT22;8100;50.994;4.538;2022-12-29T10:00:20;9.60;99.90
15991;DHT22;8100;50.994;4.538;2022-12-29T10:03:15;9.60;99.90
15991;DHT22;8100;50.994;4.538;2022-12-29T10:06:06;9.60;99.90
15991;DHT22;8100;50.994;4.538;2022-12-29T10:09:01;9.70;99.90
15991;DHT22;8100;50.994;4.538;2022-12-29T10:12:02;9.90;99.90
15991;DHT22;8100;50.994;4.538;2022-12-29T10:15:01;10.10;99.90
15991;DHT22;8100;50.994;4.538;2022-12-29T10:17:58;10.20;99.90
15991;DHT22;8100;50.994;4.538;2022-12-29T10:20:53;10.40;99.90
15991;DHT22;8100;50.994;4.538;2022-12-29T10:23:44;10.50;93.90
15991;DHT22;8100;50.994;4.538;2022-12-29T10:26:38;10.60;83.80
15991;DHT22;8100;50.994;4.538;2022-12-29T10:29:29;10.60;32.80
15991;DHT22;8100;50.994;4.538;2022-12-29T10:32:27;10.60;57.10
15991;DHT22;8100;50.994;4.538;2022-12-29T10:35:18;10.70;30.30
15991;DHT22;8100;50.994;4.538;2022-12-29T10:38:15;10.70;31.20
15991;DHT22;8100;50.994;4.538;2022-12-29T10:41:11;10.70;33.20
15991;DHT22;8100;50.994;4.538;2022-12-29T10:44:02;10.70;15.80
15991;DHT22;8100;50.994;4.538;2022-12-29T10:46:54;10.80;9.90
15991;DHT22;8100;50.994;4.538;2022-12-29T10:49:43;10.80;23.20
15991;DHT22;8100;50.994;4.538;2022-12-29T10:52:33;10.80;17.30
15991;DHT22;8100;50.994;4.538;2022-12-29T10:55:24;10.90;1.00
15991;DHT22;8100;50.994;4.538;2022-12-29T10:58:15;10.90;12.00
15991;DHT22;8100;50.994;4.538;2022-12-29T11:01:03;10.90;1.00
15991;DHT22;8100;50.994;4.538;2022-12-29T11:03:59;10.90;1.00
15991;DHT22;8100;50.994;4.538;2022-12-29T11:06:49;10.90;1.00
15991;DHT22;8100;50.994;4.538;2022-12-29T11:09:38;10.90;1.00
15991;DHT22;8100;50.994;4.538;2022-12-29T11:12:27;10.90;1.00
15991;DHT22;8100;50.994;4.538;2022-12-29T11:15:16;10.90;1.00
15991;DHT22;8100;50.994;4.538;2022-12-29T11:18:04;10.90;1.00
15991;DHT22;8100;50.994;4.538;2022-12-29T11:20:53;10.90;1.00
15991;DHT22;8100;50.994;4.538;2022-12-29T11:23:41;10.90;1.00
15991;DHT22;8100;50.994;4.538;2022-12-29T11:26:29;10.90;1.00
15991;DHT22;8100;50.994;4.538;2022-12-29T11:29:27;10.80;1.60
15991;DHT22;8100;50.994;4.538;2022-12-29T11:32:18;10.70;6.90
15991;DHT22;8100;50.994;4.538;2022-12-29T11:35:29;10.70;1.90
15991;DHT22;8100;50.994;4.538;2022-12-29T11:38:20;10.60;79.40
15991;DHT22;8100;50.994;4.538;2022-12-29T11:41:11;10.30;99.90
15991;DHT22;8100;50.994;4.538;2022-12-29T11:44:03;10.20;99.90
15991;DHT22;8100;50.994;4.538;2022-12-29T11:46:52;9.90;99.90
15991;DHT22;8100;50.994;4.538;2022-12-29T11:49:40;9.80;99.90
15991;DHT22;8100;50.994;4.538;2022-12-29T11:52:30;9.90;99.90
15991;DHT22;8100;50.994;4.538;2022-12-29T11:55:21;9.90;99.90
15991;DHT22;8100;50.994;4.538;2022-12-29T11:58:14;10.00;99.90
15991;DHT22;8100;50.994;4.538;2022-12-29T12:01:05;10.00;99.90
15991;DHT22;8100;50.994;4.538;2022-12-29T12:03:59;10.00;99.90
15991;DHT22;8100;50.994;4.538;2022-12-29T12:06:52;10.00;99.90
15991;DHT22;8100;50.994;4.538;2022-12-29T12:09:48;10.00;99.90
15991;DHT22;8100;50.994;4.538;2022-12-29T12:12:41;10.00;99.90
15991;DHT22;8100;50.994;4.538;2022-12-29T12:15:36;10.00;99.90
15991;DHT22;8100;50.994;4.538;2022-12-29T12:18:34;10.10;99.90
15991;DHT22;8100;50.994;4.538;2022-12-29T12:21:27;10.00;99.90
15991;DHT22;8100;50.994;4.538;2022-12-29T12:24:36;10.00;99.90
15991;DHT22;8100;50.994;4.538;2022-12-29T12:27:29;10.00;99.90
15991;DHT22;8100;50.994;4.538;2022-12-29T12:30:23;10.00;99.90
15991;DHT22;8100;50.994;4.538;2022-12-29T12:33:17;10.10;99.90
15991;DHT22;8100;50.994;4.538;2022-12-29T12:36:32;10.10;99.90
15991;DHT22;8100;50.994;4.538;2022-12-29T12:39:26;10.10;99.90
15991;DHT22;8100;50.994;4.538;2022-12-29T12:42:24;10.00;99.90
15991;DHT22;8100;50.994;4.538;2022-12-29T12:45:32;10.00;99.90
15991;DHT22;8100;50.994;4.538;2022-12-29T12:48:41;10.00;99.90
15991;DHT22;8100;50.994;4.538;2022-12-29T12:51:35;10.10;99.90
15991;DHT22;8100;50.994;4.538;2022-12-29T12:54:48;10.10;99.90
15991;DHT22;8100;50.994;4.538;2022-12-29T12:57:48;10.10;99.90
15991;DHT22;8100;50.994;4.538;2022-12-29T13:00:43;10.20;99.90
15991;DHT22;8100;50.994;4.538;2022-12-29T13:03:44;10.20;99.90
15991;DHT22;8100;50.994;4.538;2022-12-29T13:06:38;10.20;95.00
15991;DHT22;8100;50.994;4.538;2022-12-29T13:09:36;10.30;84.50
15991;DHT22;8100;50.994;4.538;2022-12-29T13:12:35;10.20;98.50
15991;DHT22;8100;50.994;4.538;2022-12-29T13:15:41;10.10;99.90
15991;DHT22;8100;50.994;4.538;2022-12-29T13:18:41;10.00;99.90
15991;DHT22;8100;50.994;4.538;2022-12-29T13:21:37;10.10;99.90
15991;DHT22;8100;50.994;4.538;2022-12-29T13:24:32;10.20;99.90
15991;DHT22;8100;50.994;4.538;2022-12-29T13:27:29;10.20;99.50
15991;DHT22;8100;50.994;4.538;2022-12-29T13:30:21;10.30;99.90
15991;DHT22;8100;50.994;4.538;2022-12-29T13:33:19;10.30;99.90
15991;DHT22;8100;50.994;4.538;2022-12-29T13:36:13;10.30;99.90
15991;DHT22;8100;50.994;4.538;2022-12-29T13:39:08;10.40;94.80
15991;DHT22;8100;50.994;4.538;2022-12-29T13:41:58;10.50;41.20
15991;DHT22;8100;50.994;4.538;2022-12-29T13:44:48;10.50;22.80
15991;DHT22;8100;50.994;4.538;2022-12-29T13:47:41;10.30;21.10
15991;DHT22;8100;50.994;4.538;2022-12-29T13:50:35;10.50;18.60
15991;DHT22;8100;50.994;4.538;2022-12-29T13:53:33;10.60;1.00
15991;DHT22;8100;50.994;4.538;2022-12-29T13:56:25;10.70;1.00
15991;DHT22;8100;50.994;4.538;2022-12-29T13:59:19;10.70;1.00
15991;DHT22;8100;50.994;4.538;2022-12-29T14:02:18;10.60;1.00
15991;DHT22;8100;50.994;4.538;2022-12-29T14:05:31;10.60;5.70
15991;DHT22;8100;50.994;4.538;2022-12-29T14:08:18;10.60;12.60
15991;DHT22;8100;50.994;4.538;2022-12-29T14:11:08;10.60;19.40
15991;DHT22;8100;50.994;4.538;2022-12-29T14:13:56;10.50;28.70
15991;DHT22;8100;50.994;4.538;2022-12-29T14:16:44;10.40;39.10
15991;DHT22;8100;50.994;4.538;2022-12-29T14:19:40;10.30;27.60
15991;DHT22;8100;50.994;4.538;2022-12-29T14:22:30;10.20;52.20
15991;DHT22;8100;50.994;4.538;2022-12-29T14:25:54;9.90;99.90
15991;DHT22;8100;50.994;4.538;2022-12-29T14:28:44;9.40;99.90
15991;DHT22;8100;50.994;4.538;2022-12-29T14:31:35;9.10;99.90
15991;DHT22;8100;50.994;4.538;2022-12-29T14:34:30;8.40;99.90
15991;DHT22;8100;50.994;4.538;2022-12-29T14:37:24;8.00;99.90
15991;DHT22;8100;50.994;4.538;2022-12-29T14:40:18;7.90;99.90
15991;DHT22;8100;50.994;4.538;2022-12-29T14:43:12;7.80;99.90
15991;DHT22;8100;50.994;4.538;2022-12-29T14:46:01;7.90;99.90
15991;DHT22;8100;50.994;4.538;2022-12-29T14:48:55;7.90;99.90
15991;DHT22;8100;50.994;4.538;2022-12-29T14:51:43;7.60;99.90
15991;DHT22;8100;50.994;4.538;2022-12-29T14:54:49;7.70;99.90
15991;DHT22;8100;50.994;4.538;2022-12-29T14:57:40;7.70;99.90
15991;DHT22;8100;50.994;4.538;2022-12-29T15:00:31;7.70;99.90
15991;DHT22;8100;50.994;4.538;2022-12-29T15:03:22;7.60;99.90
15991;DHT22;8100;50.994;4.538;2022-12-29T15:06:11;7.70;99.90
15991;DHT22;8100;50.994;4.538;2022-12-29T15:09:06;7.90;99.90
15991;DHT22;8100;50.994;4.538;2022-12-29T15:12:01;7.70;99.90
15991;DHT22;8100;50.994;4.538;2022-12-29T15:14:51;7.60;99.90
15991;DHT22;8100;50.994;4.538;2022-12-29T15:17:39;7.60;99.90
15991;DHT22;8100;50.994;4.538;2022-12-29T15:20:27;7.50;99.90
15991;DHT22;8100;50.994;4.538;2022-12-29T15:23:16;7.50;99.90
15991;DHT22;8100;50.994;4.538;2022-12-29T15:26:06;7.50;99.90
15991;DHT22;8100;50.994;4.538;2022-12-29T15:28:54;7.50;99.90
15991;DHT22;8100;50.994;4.538;2022-12-29T15:31:47;7.40;99.90
15991;DHT22;8100;50.994;4.538;2022-12-29T15:34:35;7.30;99.90
15991;DHT22;8100;50.994;4.538;2022-12-29T15:37:24;7.10;99.90
15991;DHT22;8100;50.994;4.538;2022-12-29T15:40:23;7.10;99.90
15991;DHT22;8100;50.994;4.538;2022-12-29T15:43:24;7.30;99.90
15991;DHT22;8100;50.994;4.538;2022-12-29T15:46:16;7.30;99.90
15991;DHT22;8100;50.994;4.538;2022-12-29T15:49:07;7.30;99.90
15991;DHT22;8100;50.994;4.538;2022-12-29T15:51:54;7.30;99.90
15991;DHT22;8100;50.994;4.538;2022-12-29T15:54:42;7.30;99.90
15991;DHT22;8100;50.994;4.538;2022-12-29T15:57:36;7.40;99.90
15991;DHT22;8100;50.994;4.538;2022-12-29T16:00:27;7.50;99.90
15991;DHT22;8100;50.994;4.538;2022-12-29T16:03:15;7.60;99.90
15991;DHT22;8100;50.994;4.538;2022-12-29T16:06:26;7.60;99.90
15991;DHT22;8100;50.994;4.538;2022-12-29T16:09:16;7.60;99.90
15991;DHT22;8100;50.994;4.538;2022-12-29T16:12:05;7.70;99.90
15991;DHT22;8100;50.994;4.538;2022-12-29T16:14:56;7.60;99.90
15991;DHT22;8100;50.994;4.538;2022-12-29T16:17:46;7.60;99.90
15991;DHT22;8100;50.994;4.538;2022-12-29T16:20:38;7.60;99.90
15991;DHT22;8100;50.994;4.538;2022-12-29T16:23:29;7.50;99.90
15991;DHT22;8100;50.994;4.538;2022-12-29T16:26:19;7.50;99.90
15991;DHT22;8100;50.994;4.538;2022-12-29T16:29:07;7.50;99.90
15991;DHT22;8100;50.994;4.538;2022-12-29T16:31:55;7.50;99.90
15991;DHT22;8100;50.994;4.538;2022-12-29T16:34:48;7.60;99.90
15991;DHT22;8100;50.994;4.538;2022-12-29T16:37:36;7.60;99.90
15991;DHT22;8100;50.994;4.538;2022-12-29T16:40:27;7.60;99.90
15991;DHT22;8100;50.994;4.538;2022-12-29T16:43:21;7.50;99.90
15991;DHT22;8100;50.994;4.538;2022-12-29T16:46:18;7.60;99.90
15991;DHT22;8100;50.994;4.538;2022-12-29T16:49:14;7.50;99.90
15991;DHT22;8100;50.994;4.538;2022-12-29T16:52:12;7.50;99.90
15991;DHT22;8100;50.994;4.538;2022-12-29T16:55:00;7.50;99.90
15991;DHT22;8100;50.994;4.538;2022-12-29T16:57:52;7.40;99.90
15991;DHT22;8100;50.994;4.538;2022-12-29T17:00:44;7.40;99.90
15991;DHT22;8100;50.994;4.538;2022-12-29T17:03:34;7.50;99.90
15991;DHT22;8100;50.994;4.538;2022-12-29T17:06:24;7.50;99.90
15991;DHT22;8100;50.994;4.538;2022-12-29T17:09:17;7.50;99.90
15991;DHT22;8100;50.994;4.538;2022-12-29T17:12:05;7.50;99.90
15991;DHT22;8100;50.994;4.538;2022-12-29T17:14:56;7.60;99.90
15991;DHT22;8100;50.994;4.538;2022-12-29T17:17:45;7.60;99.90
15991;DHT22;8100;50.994;4.538;2022-12-29T17:20:33;7.70;99.90
15991;DHT22;8100;50.994;4.538;2022-12-29T17:23:20;7.70;99.90
15991;DHT22;8100;50.994;4.538;2022-12-29T17:26:08;7.60;99.90
15991;DHT22;8100;50.994;4.538;2022-12-29T17:28:56;7.60;99.90
15991;DHT22;8100;50.994;4.538;2022-12-29T17:31:44;7.60;99.90
15991;DHT22;8100;50.994;4.538;2022-12-29T17:34:32;7.70;99.90
15991;DHT22;8100;50.994;4.538;2022-12-29T17:37:29;7.70;99.90
15991;DHT22;8100;50.994;4.538;2022-12-29T17:40:18;7.70;99.90
15991;DHT22;8100;50.994;4.538;2022-12-29T17:43:09;7.70;99.90
15991;DHT22;8100;50.994;4.538;2022-12-29T17:45:58;7.70;99.90
15991;DHT22;8100;50.994;4.538;2022-12-29T17:48:46;7.70;99.90
15991;DHT22;8100;50.994;4.538;2022-12-29T17:51:34;7.70;99.90
15991;DHT22;8100;50.994;4.538;2022-12-29T17:54:23;7.70;99.90
15991;DHT22;8100;50.994;4.538;2022-12-29T17:57:12;7.60;99.90
15991;DHT22;8100;50.994;4.538;2022-12-29T17:59:59;7.60;99.90
15991;DHT22;8100;50.994;4.538;2022-12-29T18:02:47;7.50;99.90
15991;DHT22;8100;50.994;4.538;2022-12-29T18:05:36;7.60;99.90
15991;DHT22;8100;50.994;4.538;2022-12-29T18:08:23;7.60;99.90
15991;DHT22;8100;50.994;4.538;2022-12-29T18:11:24;7.70;99.90
15991;DHT22;8100;50.994;4.538;2022-12-29T18:14:13;7.70;99.90
15991;DHT22;8100;50.994;4.538;2022-12-29T18:17:01;7.70;99.90
15991;DHT22;8100;50.994;4.538;2022-12-29T18:19:48;7.80;99.90
15991;DHT22;8100;50.994;4.538;2022-12-29T18:22:38;7.70;99.90
15991;DHT22;8100;50.994;4.538;2022-12-29T18:25:28;7.70;99.90
15991;DHT22;8100;50.994;4.538;2022-12-29T18:28:16;7.70;99.90